createdAt,value
2024-01-11T04:39:52.165Z,100.00
2024-01-11T04:42:55.635Z,100.00
2024-01-11T04:45:58.560Z,100.00
2024-01-11T04:49:01.849Z,100.00
2024-01-11T04:52:04.792Z,100.00
2024-01-11T04:55:08.198Z,100.00
2024-01-11T04:58:10.840Z,100.00
2024-01-11T05:01:18.593Z,100.00
2024-01-11T05:04:21.750Z,100.00
2024-01-11T05:07:28.842Z,100.00
2024-01-11T05:10:31.686Z,100.00
2024-01-11T05:13:34.887Z,100.00
2024-01-11T05:16:37.517Z,100.00
2024-01-11T05:19:40.390Z,100.00
2024-01-11T05:22:43.071Z,100.00
2024-01-11T05:25:46.354Z,100.00
2024-01-11T05:28:49.614Z,100.00
2024-01-11T05:31:52.873Z,100.00
2024-01-11T05:34:55.993Z,100.00
2024-01-11T05:37:59.407Z,100.00
2024-01-11T05:41:03.082Z,100.00
2024-01-11T05:44:06.554Z,100.00
2024-01-11T05:47:09.460Z,100.00
2024-01-11T05:50:13.861Z,100.00
2024-01-11T05:53:18.287Z,100.00
2024-01-11T05:56:21.929Z,100.00
2024-01-11T05:59:24.768Z,100.00
2024-01-11T06:02:28.403Z,100.00
2024-01-11T06:05:34.742Z,100.00
2024-01-11T06:08:38.099Z,100.00
2024-01-11T06:11:41.755Z,100.00
2024-01-11T06:14:44.890Z,100.00
2024-01-11T06:17:48.275Z,100.00
2024-01-11T06:20:51.753Z,100.00
2024-01-11T06:23:54.742Z,100.00
2024-01-11T06:26:57.540Z,100.00
2024-01-11T06:30:00.470Z,100.00
2024-01-11T06:33:04.648Z,100.00
2024-01-11T06:36:08.964Z,100.00
2024-01-11T06:39:11.697Z,100.00
2024-01-11T06:42:15.674Z,100.00
2024-01-11T06:45:18.633Z,100.00
2024-01-11T06:48:22.224Z,100.00
2024-01-11T06:51:25.449Z,100.00
2024-01-11T06:54:28.455Z,100.00
2024-01-11T06:57:31.296Z,100.00
2024-01-11T07:00:34.202Z,100.00
2024-01-11T07:03:38.092Z,100.00
2024-01-11T07:06:41.398Z,100.00
2024-01-11T07:09:44.175Z,100.00
2024-01-11T07:12:49.927Z,100.00
2024-01-11T07:15:53.624Z,100.00
2024-01-11T07:18:59.215Z,100.00
2024-01-11T07:22:02.327Z,100.00
2024-01-11T07:25:05.496Z,100.00
2024-01-11T07:28:08.456Z,100.00
2024-01-11T07:31:12.175Z,100.00
2024-01-11T07:34:15.253Z,100.00
2024-01-11T07:37:18.591Z,100.00
2024-01-11T07:40:21.238Z,100.00
2024-01-11T07:43:27.003Z,100.00
2024-01-11T07:46:39.370Z,100.00
2024-01-11T07:49:49.578Z,100.00
2024-01-11T07:52:52.196Z,100.00
2024-01-11T07:55:55.241Z,100.00
2024-01-11T07:58:58.264Z,100.00
2024-01-11T08:02:03.668Z,100.00
2024-01-11T08:05:07.255Z,100.00
2024-01-11T08:08:10.213Z,100.00
2024-01-11T08:11:13.571Z,100.00
2024-01-11T08:14:16.983Z,100.00
2024-01-11T08:17:20.315Z,100.00
2024-01-11T08:20:23.341Z,100.00
2024-01-11T08:23:26.617Z,100.00
2024-01-11T08:26:29.626Z,100.00
2024-01-11T08:29:34.563Z,100.00
2024-01-11T08:32:40.893Z,100.00
2024-01-11T08:35:44.142Z,100.00
2024-01-11T08:38:47.324Z,96.34
2024-01-11T08:41:51.524Z,100.00
2024-01-11T08:44:54.494Z,99.23
2024-01-11T08:47:58.091Z,100.00
2024-01-11T08:51:01.134Z,90.72
2024-01-11T08:54:05.523Z,74.52
2024-01-11T08:57:08.898Z,61.77
2024-01-11T09:00:13.186Z,60.66
2024-01-11T09:03:18.205Z,59.82
2024-01-11T09:06:21.763Z,61.64
2024-01-11T09:09:24.542Z,60.54
2024-01-11T09:12:27.359Z,57.78
2024-01-11T09:15:30.245Z,55.12
2024-01-11T09:18:33.496Z,58.71
2024-01-11T09:21:36.367Z,57.78
2024-01-11T09:24:40.349Z,56.19
2024-01-11T09:27:43.337Z,55.58
2024-01-11T09:30:46.244Z,54.66
2024-01-11T09:33:51.143Z,55.49
2024-01-11T09:36:54.533Z,54.64
2024-01-11T09:39:57.177Z,54.91
2024-01-11T09:43:01.899Z,54.13
2024-01-11T09:46:09.015Z,54.68
2024-01-11T09:49:12.755Z,51.28
2024-01-11T09:52:17.154Z,53.97
2024-01-11T09:55:20.305Z,53.43
2024-01-11T09:58:23.522Z,53.06
2024-01-11T10:01:27.614Z,51.96
2024-01-11T10:04:31.367Z,52.20
2024-01-11T10:07:35.185Z,51.51
2024-01-11T10:10:39.559Z,50.28
2024-01-11T10:13:43.185Z,50.75
2024-01-11T10:16:46.472Z,50.70
2024-01-11T10:19:49.436Z,50.18
2024-01-11T10:22:53.766Z,50.92
2024-01-11T10:26:00.884Z,50.27
2024-01-11T10:29:04.904Z,49.92
2024-01-11T10:32:07.929Z,51.35
2024-01-11T10:35:11.421Z,49.80
2024-01-11T10:38:20.311Z,51.86
2024-01-11T10:41:23.672Z,52.11
2024-01-11T10:44:31.778Z,52.98
2024-01-11T10:47:37.737Z,54.17
2024-01-11T10:50:47.193Z,55.08
2024-01-11T10:53:52.858Z,55.46
2024-01-11T10:56:56.830Z,55.33
2024-01-11T11:00:04.425Z,54.51
2024-01-11T11:03:08.566Z,56.42
2024-01-11T11:06:14.114Z,55.91
2024-01-11T11:09:19.558Z,55.79
2024-01-11T11:12:23.322Z,55.35
2024-01-11T11:15:29.189Z,55.69
2024-01-11T11:18:36.465Z,54.61
2024-01-11T11:21:47.519Z,55.96
2024-01-11T11:25:06.579Z,57.94
2024-01-11T11:28:09.596Z,58.12
2024-01-11T11:31:15.543Z,57.90
2024-01-11T11:34:21.041Z,58.00
2024-01-11T11:37:25.256Z,58.53
2024-01-11T11:40:39.799Z,59.41
2024-01-11T11:43:42.861Z,59.11
2024-01-11T11:46:47.712Z,59.53
2024-01-11T11:50:01.017Z,59.86
2024-01-11T11:53:04.234Z,60.14
2024-01-11T11:56:08.120Z,61.33
2024-01-11T11:59:10.847Z,61.34
2024-01-11T12:02:18.263Z,61.01
2024-01-11T12:05:24.060Z,61.47
2024-01-11T12:08:30.879Z,61.53
2024-01-11T12:11:34.698Z,62.12
2024-01-11T12:14:40.222Z,61.43
2024-01-11T12:17:44.009Z,61.57
2024-01-11T12:20:47.350Z,61.84
2024-01-11T12:23:50.815Z,61.21
2024-01-11T12:26:56.954Z,60.82
2024-01-11T12:30:02.019Z,60.41
2024-01-11T12:33:05.582Z,60.33
2024-01-11T12:36:10.031Z,60.00
2024-01-11T12:39:14.413Z,58.97
2024-01-11T12:42:17.897Z,57.92
2024-01-11T12:45:24.221Z,56.47
2024-01-11T12:48:27.703Z,56.97
2024-01-11T12:51:30.564Z,56.20
2024-01-11T12:54:34.738Z,55.75
2024-01-11T12:57:37.409Z,55.92
2024-01-11T13:00:41.385Z,56.59
2024-01-11T13:03:47.686Z,57.90
2024-01-11T13:06:50.950Z,57.20
2024-01-11T13:09:53.639Z,56.55
2024-01-11T13:13:03.399Z,56.59
2024-01-11T13:16:12.657Z,54.11
2024-01-11T13:19:24.322Z,52.73
2024-01-11T13:22:30.425Z,52.65
2024-01-11T13:25:33.533Z,52.75
2024-01-11T13:28:36.371Z,52.24
2024-01-11T13:31:39.412Z,51.85
2024-01-11T13:34:43.795Z,51.56
2024-01-11T13:37:47.016Z,52.14
2024-01-11T13:40:49.943Z,52.60
2024-01-11T13:43:55.512Z,52.18
2024-01-11T13:46:58.538Z,53.10
2024-01-11T13:50:02.343Z,53.32
2024-01-11T13:53:05.630Z,52.07
2024-01-11T13:56:08.553Z,51.69
2024-01-11T13:59:11.426Z,52.50
2024-01-11T14:02:14.703Z,52.60
2024-01-11T14:05:19.580Z,52.09
2024-01-11T14:08:22.749Z,50.54
2024-01-11T14:11:26.037Z,50.27
2024-01-11T14:14:29.016Z,51.03
2024-01-11T14:17:33.097Z,50.72
2024-01-11T14:20:36.640Z,51.13
2024-01-11T14:23:39.962Z,49.86
2024-01-11T14:26:44.669Z,50.62
2024-01-11T14:29:50.671Z,50.28
2024-01-11T14:32:53.537Z,48.82
2024-01-11T14:35:56.645Z,50.32
2024-01-11T14:38:59.549Z,51.26
2024-01-11T14:42:02.602Z,51.47
2024-01-11T14:45:06.676Z,50.78
2024-01-11T14:48:10.065Z,51.84
2024-01-11T14:51:12.731Z,54.77
2024-01-11T14:54:15.833Z,55.16
2024-01-11T14:57:18.837Z,56.91
2024-01-11T15:00:21.748Z,56.86
2024-01-11T15:03:24.470Z,53.15
2024-01-11T15:06:27.465Z,54.48
2024-01-11T15:09:30.162Z,54.78
2024-01-11T15:12:33.087Z,56.89
2024-01-11T15:15:37.896Z,57.74
2024-01-11T15:18:41.997Z,58.58
2024-01-11T15:21:49.282Z,56.60
2024-01-11T15:24:55.018Z,58.09
2024-01-11T15:27:57.745Z,60.02
2024-01-11T15:31:01.146Z,61.20
2024-01-11T15:34:04.077Z,62.47
2024-01-11T15:37:08.728Z,63.63
2024-01-11T15:40:11.756Z,63.11
2024-01-11T15:43:14.709Z,66.03
2024-01-11T15:46:17.588Z,61.33
2024-01-11T15:49:20.528Z,58.87
2024-01-11T15:52:23.972Z,54.98
2024-01-11T15:55:26.883Z,54.78
2024-01-11T15:58:29.880Z,54.47
2024-01-11T16:01:34.248Z,53.95
2024-01-11T16:04:39.480Z,55.45
2024-01-11T16:07:42.192Z,55.61
2024-01-11T16:10:45.280Z,55.92
2024-01-11T16:13:49.659Z,56.63
2024-01-11T16:16:52.966Z,58.29
2024-01-11T16:19:55.569Z,60.34
2024-01-11T16:22:59.922Z,60.90
2024-01-11T16:26:02.886Z,61.24
2024-01-11T16:29:05.905Z,63.20
2024-01-11T16:32:08.866Z,63.89
